createdAt,value
2022-08-11T00:00:01.703Z,95365.47
2022-08-11T00:02:28.019Z,95359.09
2022-08-11T00:04:54.339Z,95362.19
2022-08-11T00:07:20.648Z,95366.75
2022-08-11T00:09:46.958Z,95363.97
2022-08-11T00:12:13.261Z,95367.66
2022-08-11T00:14:39.662Z,95364.91
2022-08-11T00:17:06.000Z,95369.41
2022-08-11T00:20:12.583Z,95365.78
2022-08-11T00:22:18.585Z,95367.25
2022-08-11T00:24:54.715Z,95368.19
2022-08-11T00:27:23.638Z,95367.66
2022-08-11T00:29:51.719Z,95367.06
2022-08-11T00:32:18.319Z,95372.53
2022-08-11T00:34:44.627Z,95374.50
2022-08-11T00:37:10.935Z,95378.16
2022-08-11T00:39:37.259Z,95362.91
2022-08-11T00:42:03.603Z,95363.25
2022-08-11T00:44:29.904Z,95365.78
2022-08-11T00:46:56.848Z,95357.78
2022-08-11T00:49:23.159Z,95364.34
2022-08-11T00:52:04.595Z,95368.69
2022-08-11T00:54:33.145Z,95373.06
2022-08-11T00:56:59.621Z,95365.06
2022-08-11T00:59:35.029Z,95373.78
2022-08-11T01:02:02.188Z,95378.50
2022-08-11T01:04:28.491Z,95385.63
2022-08-11T01:06:54.789Z,95379.78
2022-08-11T01:09:22.278Z,95383.78
2022-08-11T01:11:55.874Z,95380.31
2022-08-11T01:14:33.702Z,95375.97
2022-08-11T01:17:00.938Z,95382.00
2022-08-11T01:19:27.240Z,95379.63
2022-08-11T01:21:53.586Z,95384.69
2022-08-11T01:24:21.427Z,95377.34
2022-08-11T01:26:47.727Z,95386.88
2022-08-11T01:29:14.027Z,95379.63
2022-08-11T01:31:40.333Z,95376.34
2022-08-11T01:34:06.639Z,95374.50
2022-08-11T01:36:32.941Z,95373.38
2022-08-11T01:38:59.239Z,95363.94
2022-08-11T01:41:25.540Z,95372.13
2022-08-11T01:43:51.848Z,95375.06
2022-08-11T01:46:18.169Z,95377.78
2022-08-11T01:48:44.476Z,95367.22
2022-08-11T01:51:17.301Z,95368.69
2022-08-11T01:53:43.822Z,95365.06
2022-08-11T01:56:10.123Z,95369.41
2022-08-11T01:58:40.746Z,95368.28
2022-08-11T02:01:10.693Z,95359.41
2022-08-11T02:03:37.026Z,95359.75
2022-08-11T02:06:03.336Z,95366.44
2022-08-11T02:08:33.254Z,95358.63
2022-08-11T02:11:00.050Z,95361.69
2022-08-11T02:13:35.394Z,95372.66
2022-08-11T02:16:02.226Z,95373.69
2022-08-11T02:18:28.530Z,95373.53
2022-08-11T02:20:54.835Z,95368.28
2022-08-11T02:24:05.742Z,95370.50
2022-08-11T02:26:07.427Z,95360.41
2022-08-11T02:28:38.395Z,95364.41
2022-08-11T02:31:06.513Z,95360.91
2022-08-11T02:33:40.944Z,95360.97
2022-08-11T02:36:07.234Z,95360.63
2022-08-11T02:38:33.564Z,95360.72
2022-08-11T02:41:01.944Z,95366.03
2022-08-11T02:43:28.277Z,95362.91
2022-08-11T02:45:54.619Z,95362.19
2022-08-11T02:48:20.983Z,95360.53
2022-08-11T02:50:47.298Z,95363.34
2022-08-11T02:53:13.601Z,95368.06
2022-08-11T02:55:46.914Z,95369.16
2022-08-11T02:58:26.882Z,95364.38
2022-08-11T03:00:53.684Z,95368.91
2022-08-11T03:03:20.038Z,95371.09
2022-08-11T03:05:46.388Z,95375.28
2022-08-11T03:08:14.998Z,95379.09
2022-08-11T03:10:41.342Z,95371.94
2022-08-11T03:13:07.695Z,95372.94
2022-08-11T03:15:34.051Z,95377.66
2022-08-11T03:18:00.402Z,95371.63
2022-08-11T03:20:33.211Z,95379.28
2022-08-11T03:23:04.819Z,95375.09
2022-08-11T03:25:46.798Z,95372.88
2022-08-11T03:28:13.155Z,95374.00
2022-08-11T03:30:39.498Z,95377.47
2022-08-11T03:33:05.848Z,95374.19
2022-08-11T03:35:32.200Z,95368.56
2022-08-11T03:37:58.556Z,95373.25
2022-08-11T03:40:24.915Z,95377.28
2022-08-11T03:42:51.267Z,95373.44
2022-08-11T03:45:18.247Z,95380.19
2022-08-11T03:47:52.603Z,95375.06
2022-08-11T03:50:21.844Z,95374.34
2022-08-11T03:52:48.207Z,95375.28
2022-08-11T03:55:14.560Z,95380.19
2022-08-11T03:57:40.911Z,95380.38
2022-08-11T04:00:07.279Z,95370.75
2022-08-11T04:02:33.621Z,95368.53
2022-08-11T04:04:59.979Z,95371.63
2022-08-11T04:07:26.533Z,95379.47
2022-08-11T04:09:52.886Z,95386.03
2022-08-11T04:12:35.611Z,95383.44
2022-08-11T04:15:03.341Z,95383.63
2022-08-11T04:17:29.703Z,95384.03
2022-08-11T04:19:56.051Z,95382.91
2022-08-11T04:22:22.421Z,95386.38
2022-08-11T04:24:50.607Z,95385.31
2022-08-11T04:27:17.116Z,95392.22
2022-08-11T04:30:03.824Z,95398.19
2022-08-11T04:32:31.965Z,95389.88
2022-08-11T04:34:58.322Z,95391.50
2022-08-11T04:37:24.679Z,95392.78
2022-08-11T04:39:51.056Z,95393.28
2022-08-11T04:42:17.474Z,95395.13
2022-08-11T04:44:43.822Z,95394.53
2022-08-11T04:47:10.181Z,95392.22
2022-08-11T04:49:36.541Z,95399.66
2022-08-11T04:52:02.901Z,95398.59
2022-08-11T04:54:29.254Z,95401.28
2022-08-11T04:56:55.615Z,95405.66
2022-08-11T04:59:21.964Z,95406.41
2022-08-11T05:01:48.368Z,95404.75
2022-08-11T05:04:14.772Z,95412.03
2022-08-11T05:06:41.144Z,95413.13
2022-08-11T05:09:07.491Z,95419.81
2022-08-11T05:11:33.846Z,95407.47
2022-08-11T05:14:00.208Z,95409.88
2022-08-11T05:16:26.561Z,95417.16
2022-08-11T05:18:52.904Z,95414.03
2022-08-11T05:21:19.255Z,95414.75
2022-08-11T05:23:45.611Z,95414.03
2022-08-11T05:26:46.523Z,95422.41
2022-08-11T05:28:58.295Z,95414.59
2022-08-11T05:31:24.667Z,95414.91
2022-08-11T05:33:51.025Z,95417.28
2022-08-11T05:36:17.386Z,95418.03
2022-08-11T05:38:43.730Z,95420.56
2022-08-11T05:41:10.081Z,95424.19
2022-08-11T05:43:36.432Z,95417.16
2022-08-11T05:46:06.208Z,95420.41
2022-08-11T05:48:34.516Z,95419.31
2022-08-11T05:51:00.934Z,95422.75
2022-08-11T05:53:45.873Z,95415.28
2022-08-11T05:56:12.920Z,95428.75
2022-08-11T05:58:42.263Z,95431.72
2022-08-11T06:01:09.381Z,95438.28
2022-08-11T06:03:35.762Z,95436.19
2022-08-11T06:06:02.125Z,95442.03
2022-08-11T06:08:28.498Z,95444.63
2022-08-11T06:10:54.848Z,95436.25
2022-08-11T06:13:21.208Z,95433.53
2022-08-11T06:15:47.570Z,95437.16
2022-08-11T06:18:13.932Z,95437.31
2022-08-11T06:20:40.277Z,95441.66
2022-08-11T06:23:06.637Z,95432.03
2022-08-11T06:25:33.023Z,95436.25
2022-08-11T06:27:59.382Z,95434.28
2022-08-11T06:30:25.793Z,95424.94
2022-08-11T06:32:52.190Z,95429.75
2022-08-11T06:35:18.540Z,95439.91
2022-08-11T06:37:44.891Z,95426.41
2022-08-11T06:40:11.241Z,95432.22
2022-08-11T06:42:37.691Z,95433.69
2022-08-11T06:45:04.147Z,95428.06
2022-08-11T06:47:30.498Z,95430.22
2022-08-11T06:49:56.874Z,95438.47
2022-08-11T06:52:34.536Z,95429.16
2022-08-11T06:55:56.203Z,95431.56
2022-08-11T06:57:55.933Z,95431.31
2022-08-11T07:00:22.296Z,95428.56
2022-08-11T07:02:48.655Z,95415.88
2022-08-11T07:05:15.003Z,95420.22
2022-08-11T07:07:43.778Z,95421.69
2022-08-11T07:10:10.132Z,95427.50
2022-08-11T07:12:36.561Z,95424.41
2022-08-11T07:15:02.951Z,95422.94
2022-08-11T07:17:29.307Z,95431.00
2022-08-11T07:19:56.924Z,95425.34
2022-08-11T07:22:23.378Z,95429.56
2022-08-11T07:25:01.742Z,95424.47
2022-08-11T07:27:33.613Z,95420.41
2022-08-11T07:30:01.783Z,95429.34
2022-08-11T07:32:28.126Z,95420.78
2022-08-11T07:34:54.482Z,95432.22
2022-08-11T07:37:20.838Z,95423.00
2022-08-11T07:39:47.335Z,95418.44
2022-08-11T07:42:13.749Z,95423.53
2022-08-11T07:44:40.118Z,95421.91
2022-08-11T07:47:08.159Z,95432.47
2022-08-11T07:49:34.509Z,95428.06
2022-08-11T07:52:00.869Z,95419.75
2022-08-11T07:54:28.085Z,95419.19
2022-08-11T07:57:09.315Z,95412.63
2022-08-11T08:00:00.622Z,95411.25
2022-08-11T08:02:31.168Z,95414.81
2022-08-11T08:04:57.526Z,95411.00
2022-08-11T08:07:23.877Z,95415.00
2022-08-11T08:09:50.753Z,95407.69
2022-08-11T08:12:17.104Z,95404.22
2022-08-11T08:14:43.456Z,95408.66
2022-08-11T08:17:09.813Z,95409.03
2022-08-11T08:19:36.161Z,95408.78
2022-08-11T08:22:37.320Z,95415.53
2022-08-11T08:24:49.623Z,95405.34
2022-08-11T08:27:15.986Z,95412.31
2022-08-11T08:29:42.349Z,95400.13
2022-08-11T08:32:08.701Z,95408.84
2022-08-11T08:34:35.048Z,95398.06
2022-08-11T08:37:01.402Z,95409.22
2022-08-11T08:39:27.798Z,95403.78
2022-08-11T08:41:54.180Z,95410.00
2022-08-11T08:44:37.654Z,95402.13
2022-08-11T08:47:05.087Z,95396.63
2022-08-11T08:49:31.434Z,95395.53
2022-08-11T08:52:19.363Z,95400.50
2022-08-11T08:54:44.134Z,95404.72
2022-08-11T08:57:10.486Z,95398.38
2022-08-11T08:59:47.394Z,95394.94
2022-08-11T09:02:14.907Z,95400.72
2022-08-11T09:04:41.255Z,95400.00
2022-08-11T09:07:07.605Z,95396.34
2022-08-11T09:09:34.023Z,95393.28
2022-08-11T09:12:00.371Z,95389.47
2022-08-11T09:14:26.729Z,95390.34
2022-08-11T09:16:53.090Z,95397.66
2022-08-11T09:19:19.446Z,95387.84
2022-08-11T09:21:49.248Z,95390.91
2022-08-11T09:24:25.004Z,95391.75
2022-08-11T09:26:52.326Z,95394.16
2022-08-11T09:29:18.692Z,95392.91
2022-08-11T09:31:45.041Z,95389.94
2022-08-11T09:34:11.391Z,95388.34
2022-08-11T09:36:37.750Z,95388.13
2022-08-11T09:39:04.106Z,95387.84
2022-08-11T09:42:01.363Z,95391.63
2022-08-11T09:44:16.783Z,95381.81
2022-08-11T09:46:45.794Z,95377.09
2022-08-11T09:49:12.151Z,95385.09
2022-08-11T09:51:38.812Z,95371.28
2022-08-11T09:54:07.727Z,95373.13
2022-08-11T09:56:34.097Z,95382.41
2022-08-11T09:59:00.442Z,95369.47
2022-08-11T10:01:26.977Z,95368.38
2022-08-11T10:03:53.715Z,95365.44
2022-08-11T10:06:20.079Z,95371.81
2022-08-11T10:08:59.640Z,95355.41
2022-08-11T10:11:26.000Z,95357.78
2022-08-11T10:14:32.181Z,95354.88
2022-08-11T10:16:38.695Z,95352.91
2022-08-11T10:19:05.059Z,95348.31
2022-08-11T10:21:31.475Z,95351.22
2022-08-11T10:24:01.240Z,95343.56
2022-08-11T10:26:32.431Z,95341.41
2022-08-11T10:29:12.502Z,95338.38
2022-08-11T10:31:57.607Z,95339.22
2022-08-11T10:34:26.702Z,95335.31
2022-08-11T10:36:55.479Z,95326.16
2022-08-11T10:39:21.980Z,95323.63
2022-08-11T10:42:07.591Z,95322.47
2022-08-11T10:44:34.718Z,95334.16
2022-08-11T10:47:01.075Z,95321.75
2022-08-11T10:49:27.437Z,95325.03
2022-08-11T10:51:54.062Z,95318.13
2022-08-11T10:54:25.212Z,95315.00
2022-08-11T10:56:51.572Z,95321.06
2022-08-11T10:59:17.924Z,95314.53
2022-08-11T11:01:44.336Z,95313.44
2022-08-11T11:04:10.712Z,95307.59
2022-08-11T11:06:37.068Z,95310.84
2022-08-11T11:09:04.729Z,95301.03
2022-08-11T11:11:31.560Z,95298.88
2022-08-11T11:13:57.921Z,95298.13
2022-08-11T11:16:24.864Z,95294.28
2022-08-11T11:19:00.582Z,95296.31
2022-08-11T11:21:27.635Z,95288.16
2022-08-11T11:23:53.991Z,95288.56
2022-08-11T11:26:27.587Z,95280.19
2022-08-11T11:28:54.331Z,95283.97
2022-08-11T11:31:21.262Z,95286.34
2022-08-11T11:34:06.462Z,95283.38
2022-08-11T11:36:33.962Z,95276.69
2022-08-11T11:39:00.322Z,95281.63
2022-08-11T11:41:26.676Z,95283.06
2022-08-11T11:43:53.017Z,95273.38
2022-08-11T11:46:19.387Z,95271.94
2022-08-11T11:48:45.747Z,95278.44
2022-08-11T11:51:12.092Z,95269.41
2022-08-11T11:53:38.449Z,95268.31
2022-08-11T11:56:04.818Z,95259.56
2022-08-11T11:58:31.180Z,95259.94
2022-08-11T12:00:57.567Z,95258.19
2022-08-11T12:03:23.975Z,95253.72
2022-08-11T12:05:50.571Z,95257.22
2022-08-11T12:08:16.924Z,95261.00
2022-08-11T12:10:43.282Z,95260.63
2022-08-11T12:13:09.632Z,95253.72
2022-08-11T12:16:31.599Z,95262.53
2022-08-11T12:18:22.299Z,95255.00
2022-08-11T12:20:48.666Z,95247.72
2022-08-11T12:23:15.020Z,95246.81
2022-08-11T12:25:41.678Z,95247.19
2022-08-11T12:28:08.103Z,95241.34
2022-08-11T12:30:34.474Z,95237.38
2022-08-11T12:33:00.861Z,95244.59
2022-08-11T12:35:27.215Z,95241.09
2022-08-11T12:37:57.300Z,95233.53
2022-08-11T12:40:42.559Z,95225.00
2022-08-11T12:43:21.253Z,95225.28
2022-08-11T12:45:48.560Z,95228.47
2022-08-11T12:49:00.047Z,95223.03
2022-08-11T12:51:01.265Z,95219.63
2022-08-11T12:53:27.622Z,95219.00
2022-08-11T12:56:07.651Z,95215.25
2022-08-11T12:58:34.332Z,95204.03
2022-08-11T13:01:00.706Z,95197.94
2022-08-11T13:03:27.090Z,95200.72
2022-08-11T13:05:53.451Z,95198.31
2022-08-11T13:08:19.834Z,95193.25
2022-08-11T13:10:46.182Z,95197.06
2022-08-11T13:13:52.786Z,95192.13
2022-08-11T13:15:58.902Z,95190.69
2022-08-11T13:18:25.252Z,95184.53
2022-08-11T13:20:51.614Z,95181.84
2022-08-11T13:23:17.973Z,95172.50
2022-08-11T13:25:44.343Z,95173.22
2022-08-11T13:28:10.711Z,95169.06
2022-08-11T13:30:40.353Z,95164.94
2022-08-11T13:33:08.434Z,95166.63
2022-08-11T13:35:34.887Z,95170.31
2022-08-11T13:38:19.285Z,95168.78
2022-08-11T13:40:55.610Z,95165.53
2022-08-11T13:43:22.655Z,95161.97
2022-08-11T13:45:49.021Z,95152.09
2022-08-11T13:48:15.387Z,95153.94
2022-08-11T13:50:41.737Z,95153.63
2022-08-11T13:53:08.083Z,95148.25
2022-08-11T13:55:52.269Z,95144.44
2022-08-11T13:58:40.746Z,95144.09
2022-08-11T14:01:42.591Z,95129.72
2022-08-11T14:04:28.778Z,95136.97
2022-08-11T14:06:37.956Z,95136.19
2022-08-11T14:09:04.321Z,95130.59
2022-08-11T14:12:22.224Z,95125.34
2022-08-11T14:14:17.212Z,95134.41
2022-08-11T14:16:43.562Z,95126.25
2022-08-11T14:19:09.911Z,95126.63
2022-08-11T14:21:36.266Z,95119.66
2022-08-11T14:24:02.623Z,95122.06
2022-08-11T14:26:28.976Z,95120.19
2022-08-11T14:28:55.354Z,95123.09
2022-08-11T14:31:21.717Z,95119.16
2022-08-11T14:34:00.045Z,95120.06
2022-08-11T14:36:28.116Z,95111.69
2022-08-11T14:38:54.484Z,95110.28
2022-08-11T14:41:20.841Z,95104.59
2022-08-11T14:44:12.788Z,95098.84
2022-08-11T14:46:33.599Z,95101.50
2022-08-11T14:48:59.964Z,95095.63
2022-08-11T14:51:26.335Z,95090.19
2022-08-11T14:53:58.734Z,95089.06
2022-08-11T14:56:25.374Z,95093.31
2022-08-11T14:58:51.760Z,95090.28
2022-08-11T15:01:18.248Z,95093.88
2022-08-11T15:04:22.410Z,95094.25
2022-08-11T15:06:31.001Z,95085.47
2022-08-11T15:08:57.371Z,95079.25
2022-08-11T15:11:23.740Z,95084.78
2022-08-11T15:13:50.080Z,95086.19
2022-08-11T15:16:16.425Z,95077.16
2022-08-11T15:18:42.777Z,95079.31
2022-08-11T15:21:09.132Z,95075.03
2022-08-11T15:23:35.481Z,95075.31
2022-08-11T15:26:01.848Z,95075.28
2022-08-11T15:28:28.207Z,95072.69
2022-08-11T15:30:54.580Z,95072.38
2022-08-11T15:33:20.963Z,95070.84
2022-08-11T15:35:47.335Z,95067.31
2022-08-11T15:38:13.702Z,95063.13
2022-08-11T15:40:40.093Z,95065.38
2022-08-11T15:43:12.781Z,95067.31
2022-08-11T15:45:39.391Z,95061.69
2022-08-11T15:48:07.965Z,95063.28
2022-08-11T15:50:36.991Z,95055.75
2022-08-11T15:53:03.348Z,95060.91
2022-08-11T15:55:29.702Z,95058.97
2022-08-11T15:57:56.061Z,95059.31
2022-08-11T16:00:24.494Z,95048.88
2022-08-11T16:02:50.982Z,95047.16
2022-08-11T16:05:44.983Z,95049.97
2022-08-11T16:08:03.677Z,95048.78
2022-08-11T16:10:30.030Z,95044.66
2022-08-11T16:12:59.985Z,95046.94
2022-08-11T16:15:26.341Z,95043.63
2022-08-11T16:17:52.687Z,95040.34
2022-08-11T16:20:19.045Z,95036.00
2022-08-11T16:23:01.360Z,95034.25
2022-08-11T16:27:02.604Z,95043.31
2022-08-11T16:28:15.009Z,95037.59
2022-08-11T16:30:41.385Z,95029.97
2022-08-11T16:33:50.636Z,95032.81
2022-08-11T16:35:54.108Z,95023.66
2022-08-11T16:38:20.559Z,95017.78
2022-08-11T16:40:46.984Z,95015.13
2022-08-11T16:43:13.338Z,95016.91
2022-08-11T16:45:39.695Z,95016.03
2022-08-11T16:48:35.178Z,95012.47
2022-08-11T16:50:52.426Z,95015.31
2022-08-11T16:53:18.807Z,95017.53
2022-08-11T16:55:52.552Z,95021.94
2022-08-11T16:58:19.261Z,95018.34
2022-08-11T17:00:46.109Z,95013.41
2022-08-11T17:03:12.602Z,95012.25
2022-08-11T17:05:54.155Z,95010.66
2022-08-11T17:08:22.779Z,95016.13
2022-08-11T17:10:55.425Z,95006.88
2022-08-11T17:13:24.070Z,95006.06
2022-08-11T17:15:50.985Z,95003.41
2022-08-11T17:18:17.431Z,95003.81
2022-08-11T17:20:44.262Z,95003.41
2022-08-11T17:23:13.208Z,95000.28
2022-08-11T17:25:59.255Z,95006.28
2022-08-11T17:28:26.173Z,95007.59
2022-08-11T17:30:52.536Z,95005.50
2022-08-11T17:33:18.886Z,95007.41
2022-08-11T17:35:45.260Z,95002.13
2022-08-11T17:38:11.622Z,95001.97
2022-08-11T17:40:37.980Z,95004.03
2022-08-11T17:43:04.323Z,95008.94
2022-08-11T17:45:30.664Z,95006.94
2022-08-11T17:47:57.021Z,95003.56
2022-08-11T17:50:23.377Z,95009.50
2022-08-11T17:52:49.733Z,95006.94
2022-08-11T17:55:16.095Z,95003.78
2022-08-11T17:58:02.423Z,95007.00
2022-08-11T18:00:28.766Z,95001.00
2022-08-11T18:02:55.133Z,95007.09
2022-08-11T18:05:21.479Z,95005.50
2022-08-11T18:07:47.828Z,95002.91
2022-08-11T18:10:14.180Z,95009.19
2022-08-11T18:12:40.530Z,95004.84
2022-08-11T18:15:06.878Z,95005.06
2022-08-11T18:17:33.269Z,95007.22
2022-08-11T18:19:59.626Z,95004.34
2022-08-11T18:22:25.978Z,95006.69
2022-08-11T18:24:52.331Z,95005.63
2022-08-11T18:27:21.981Z,95016.53
2022-08-11T18:29:48.500Z,95011.97
2022-08-11T18:32:21.988Z,95010.06
2022-08-11T18:34:49.719Z,95011.56
2022-08-11T18:37:20.199Z,95011.56
2022-08-11T18:39:55.962Z,95008.59
2022-08-11T18:42:29.329Z,95017.13
2022-08-11T18:44:56.212Z,95012.56
2022-08-11T18:47:22.847Z,95015.00
2022-08-11T18:50:01.764Z,95017.13
2022-08-11T18:52:29.845Z,95011.66
2022-08-11T18:54:56.226Z,95019.59
2022-08-11T18:57:22.577Z,95022.19
2022-08-11T18:59:48.924Z,95014.28
2022-08-11T19:02:15.298Z,95027.47
2022-08-11T19:04:41.654Z,95023.59
2022-08-11T19:07:08.022Z,95026.50
2022-08-11T19:09:34.458Z,95027.63
2022-08-11T19:12:00.875Z,95028.66
2022-08-11T19:14:27.213Z,95021.03
2022-08-11T19:16:53.588Z,95031.09
2022-08-11T19:19:19.951Z,95030.84
2022-08-11T19:21:46.301Z,95027.81
2022-08-11T19:24:12.655Z,95033.81
2022-08-11T19:26:39.031Z,95037.41
2022-08-11T19:29:05.380Z,95037.84
2022-08-11T19:31:31.747Z,95037.84
2022-08-11T19:34:02.423Z,95037.41
2022-08-11T19:36:36.447Z,95032.97
2022-08-11T19:39:02.834Z,95033.25
2022-08-11T19:41:52.167Z,95033.56
2022-08-11T19:44:16.708Z,95035.53
2022-08-11T19:46:43.152Z,95038.38
2022-08-11T19:49:09.520Z,95040.31
2022-08-11T19:51:36.004Z,95041.03
2022-08-11T19:54:02.423Z,95034.13
2022-08-11T19:56:28.789Z,95040.31
2022-08-11T19:58:55.211Z,95043.75
2022-08-11T20:01:21.611Z,95037.97
2022-08-11T20:03:47.990Z,95056.53
2022-08-11T20:06:14.360Z,95049.88
2022-08-11T20:08:40.705Z,95045.84
2022-08-11T20:11:07.069Z,95047.22
2022-08-11T20:13:33.417Z,95051.53
2022-08-11T20:16:00.771Z,95057.41
2022-08-11T20:18:27.161Z,95045.03
2022-08-11T20:20:53.509Z,95049.53
2022-08-11T20:23:19.949Z,95060.38
2022-08-11T20:25:46.462Z,95064.09
2022-08-11T20:28:12.813Z,95057.84
2022-08-11T20:30:39.236Z,95070.50
2022-08-11T20:33:05.591Z,95058.13
2022-08-11T20:35:31.961Z,95066.50
2022-08-11T20:37:58.319Z,95066.31
2022-08-11T20:40:24.715Z,95059.44
2022-08-11T20:42:51.068Z,95071.00
2022-08-11T20:45:17.438Z,95071.63
2022-08-11T20:47:59.279Z,95076.78
2022-08-11T20:50:26.539Z,95077.78
2022-08-11T20:52:55.112Z,95080.38
2022-08-11T20:58:08.174Z,95069.88
2022-08-11T21:00:41.590Z,95071.63
2022-08-11T21:03:10.450Z,95070.50
2022-08-11T21:06:09.908Z,95072.91
2022-08-11T21:08:25.288Z,95074.22
2022-08-11T21:10:52.339Z,95075.00
2022-08-11T21:13:26.703Z,95079.34
2022-08-11T21:16:01.449Z,95067.63
2022-08-11T21:18:29.732Z,95071.06
2022-08-11T21:20:56.123Z,95077.50
2022-08-11T21:23:24.027Z,95074.22
2022-08-11T21:25:50.889Z,95081.19
2022-08-11T21:28:17.272Z,95078.22
2022-08-11T21:30:43.683Z,95069.88
2022-08-11T21:33:10.067Z,95082.94
2022-08-11T21:35:36.418Z,95075.34
2022-08-11T21:38:11.591Z,95072.44
2022-08-11T21:40:37.954Z,95076.19
2022-08-11T21:43:04.303Z,95082.22
2022-08-11T21:45:30.656Z,95073.81
2022-08-11T21:48:01.040Z,95076.47
2022-08-11T21:50:27.836Z,95075.06
2022-08-11T21:52:54.296Z,95068.34
2022-08-11T21:55:21.389Z,95076.94
2022-08-11T21:57:50.122Z,95077.56
2022-08-11T22:00:16.988Z,95079.97
2022-08-11T22:02:44.212Z,95079.50
2022-08-11T22:05:18.606Z,95083.53
2022-08-11T22:07:44.952Z,95080.22
2022-08-11T22:10:41.562Z,95079.66
2022-08-11T22:12:57.628Z,95089.47
2022-08-11T22:15:24.010Z,95090.91
2022-08-11T22:17:53.641Z,95099.97
2022-08-11T22:20:22.332Z,95101.03
2022-08-11T22:22:51.898Z,95096.19
2022-08-11T22:25:19.074Z,95104.63
2022-08-11T22:27:47.084Z,95096.84
2022-08-11T22:30:13.447Z,95106.81
2022-08-11T22:32:39.931Z,95100.63
2022-08-11T22:35:06.412Z,95088.72
2022-08-11T22:37:32.767Z,95105.28
2022-08-11T22:40:02.110Z,95096.78
2022-08-11T22:42:33.246Z,95098.63
2022-08-11T22:45:00.161Z,95096.84
2022-08-11T22:47:27.495Z,95088.50
2022-08-11T22:50:04.867Z,95090.25
2022-08-11T22:52:31.236Z,95092.84
2022-08-11T22:54:57.582Z,95085.13
2022-08-11T22:57:23.989Z,95098.13
2022-08-11T22:59:50.337Z,95093.22
2022-08-11T23:02:16.697Z,95096.38
2022-08-11T23:04:43.045Z,95101.81
2022-08-11T23:07:09.404Z,95110.66
2022-08-11T23:09:35.787Z,95107.94
2022-08-11T23:12:06.717Z,95108.41
2022-08-11T23:14:34.421Z,95112.34
2022-08-11T23:17:00.771Z,95117.78
2022-08-11T23:20:08.334Z,95119.00
2022-08-11T23:22:13.462Z,95116.03
2022-08-11T23:24:39.963Z,95124.94
2022-08-11T23:27:06.389Z,95117.41
2022-08-11T23:29:32.749Z,95112.19
2022-08-11T23:31:59.131Z,95112.19
2022-08-11T23:35:02.362Z,95115.22
2022-08-11T23:37:11.804Z,95114.47
2022-08-11T23:39:38.185Z,95120.31
2022-08-11T23:42:04.572Z,95115.91
2022-08-11T23:44:30.926Z,95115.31
2022-08-11T23:46:57.276Z,95114.97
2022-08-11T23:49:23.635Z,95118.97
2022-08-11T23:51:49.995Z,95113.88
2022-08-11T23:54:16.348Z,95113.91
2022-08-11T23:56:42.712Z,95107.69
2022-08-11T23:59:09.067Z,95110.25
